Time;durP1;ratioP1;P1;durP2;ratioP2;P2;SDS_P1;SDS_P2;PMS_P1;PMS_P2;Temp;Humidity;BMP_temperature;BMP_pressure;BME280_temperature;BME280_humidity;BME280_pressure;Samples;Min_cycle;Max_cycle;Signal;HPM_P1;HPM_P2
2022/08/19 00:00:43;;;;;;;0.10;0.10;;;17.40;99.90;;;;;;7956866;29;20027;-88
2022/08/19 00:04:46;;;;;;;0.10;0.10;;;17.40;99.90;;;;;;8381971;23;20079;-87
2022/08/19 00:08:53;;;;;;;0.10;0.10;;;17.40;99.90;;;;;;8349389;28;20025;-87
2022/08/19 00:17:49;;;;;;;0.10;0.10;;;16.90;99.90;;;;;;8341764;28;20079;-87
2022/08/19 00:32:50;;;;;;;0.00;0.00;;;16.80;99.90;;;;;;8306603;28;20029;-87
2022/08/19 00:36:50;;;;;;;0.57;0.50;;;16.80;99.90;;;;;;8248158;28;20089;-87
2022/08/19 00:41:32;;;;;;;0.10;0.10;;;17.00;99.90;;;;;;8229567;28;20045;-87
2022/08/19 00:46:06;;;;;;;;;;;;;;;;;;;;;
2022/08/19 00:51:10;;;;;;;0.10;0.10;;;17.00;99.90;;;;;;8214816;28;20364;-87
2022/08/19 01:01:38;;;;;;;;;;;;;;;;;;;;;
2022/08/19 01:05:41;;;;;;;0.15;0.15;;;16.90;99.90;;;;;;8325069;28;20406;-87
2022/08/19 01:10:10;;;;;;;0.00;0.00;;;17.10;99.90;;;;;;8346885;28;20075;-87
2022/08/19 01:22:53;;;;;;;0.10;0.10;;;17.10;99.90;;;;;;8326238;23;20067;-87
2022/08/19 01:27:00;;;;;;;0.10;0.10;;;17.20;99.90;;;;;;8315160;28;20030;-87
2022/08/19 01:31:24;;;;;;;0.10;0.10;;;17.10;99.90;;;;;;8302372;28;20025;-87
2022/08/19 01:39:55;;;;;;;1.13;0.47;;;17.00;99.90;;;;;;8214322;28;20050;-87
2022/08/19 01:44:46;;;;;;;0.20;0.20;;;17.30;99.90;;;;;;8220610;28;20485;-87
2022/08/19 01:48:59;;;;;;;0.10;0.10;;;17.20;99.90;;;;;;8194775;28;20768;-88
2022/08/19 01:53:05;;;;;;;0.10;0.10;;;17.40;99.90;;;;;;8275494;28;20113;-87
2022/08/19 01:57:17;;;;;;;0.10;0.10;;;17.30;99.90;;;;;;8286249;28;20018;-87
2022/08/19 02:01:32;;;;;;;0.10;0.10;;;17.20;99.90;;;;;;8263396;28;20015;-87
2022/08/19 02:05:39;;;;;;;0.13;0.13;;;17.10;99.90;;;;;;8278566;28;20038;-87
2022/08/19 02:09:41;;;;;;;0.88;0.88;;;17.00;99.90;;;;;;8269092;28;20412;-87
2022/08/19 02:13:41;;;;;;;0.30;0.30;;;17.10;99.90;;;;;;8270184;28;20026;-87
2022/08/19 02:17:45;;;;;;;1.08;0.32;;;17.60;99.90;;;;;;8275760;28;20117;-86
2022/08/19 02:21:46;;;;;;;0.10;0.10;;;17.70;99.90;;;;;;8263656;28;20089;-87
2022/08/19 02:25:51;;;;;;;0.10;0.10;;;17.50;99.90;;;;;;8277738;28;20088;-87
2022/08/19 02:29:52;;;;;;;0.32;0.32;;;17.50;99.90;;;;;;8269235;28;20014;-87
2022/08/19 02:33:54;;;;;;;0.10;0.10;;;17.20;99.90;;;;;;8259846;28;20392;-87
2022/08/19 02:42:13;;;;;;;0.50;0.50;;;17.20;99.90;;;;;;8270498;28;20407;-87
2022/08/19 02:46:21;;;;;;;3.88;1.67;;;17.20;99.90;;;;;;8273970;28;20022;-87
2022/08/19 02:50:21;;;;;;;0.40;0.40;;;17.20;99.90;;;;;;8280475;28;20026;-86
2022/08/19 02:54:22;;;;;;;0.17;0.17;;;17.20;99.90;;;;;;8274898;28;20664;-87
2022/08/19 02:58:23;;;;;;;0.35;0.35;;;17.10;99.90;;;;;;8277749;28;20018;-87
2022/08/19 03:02:24;;;;;;;0.10;0.10;;;17.20;99.90;;;;;;8267164;28;20415;-87
2022/08/19 03:06:25;;;;;;;0.22;0.22;;;17.20;99.90;;;;;;8263131;28;20022;-87
2022/08/19 03:10:26;;;;;;;0.98;0.98;;;17.10;99.90;;;;;;8251294;28;20117;-87
2022/08/19 03:14:27;;;;;;;6.20;1.00;;;17.10;99.90;;;;;;8313720;22;20623;-80
2022/08/19 03:18:28;;;;;;;0.28;0.28;;;17.10;99.90;;;;;;8253956;28;20018;-81
2022/08/19 03:22:29;;;;;;;0.30;0.30;;;16.90;99.90;;;;;;8244108;28;20400;-81
2022/08/19 03:26:30;;;;;;;0.82;0.82;;;17.00;99.90;;;;;;8222137;28;20027;-79
2022/08/19 03:30:31;;;;;;;0.50;0.50;;;17.00;99.90;;;;;;8215768;28;20409;-79
2022/08/19 03:34:34;;;;;;;1.08;0.95;;;17.00;99.90;;;;;;8214842;28;20062;-80
2022/08/19 03:38:37;;;;;;;0.40;0.40;;;17.00;99.90;;;;;;8214572;28;20019;-80
2022/08/19 03:42:38;;;;;;;1.50;1.10;;;16.90;99.90;;;;;;8235490;28;20028;-80
2022/08/19 03:46:39;;;;;;;0.40;0.30;;;16.90;99.90;;;;;;8211856;28;20023;-79
2022/08/19 03:50:40;;;;;;;0.10;0.10;;;16.90;99.90;;;;;;8211629;28;20082;-80
2022/08/19 03:54:41;;;;;;;0.10;0.10;;;17.10;99.90;;;;;;8207960;28;20578;-79
2022/08/19 03:58:42;;;;;;;0.10;0.10;;;17.00;99.90;;;;;;8208093;28;20046;-79
2022/08/19 04:02:43;;;;;;;0.20;0.20;;;16.90;99.90;;;;;;8208490;28;20047;-85
2022/08/19 04:06:44;;;;;;;0.32;0.32;;;16.80;99.90;;;;;;8217965;28;20106;-86
2022/08/19 04:10:44;;;;;;;1.75;0.68;;;16.70;99.90;;;;;;8210893;28;20035;-85
2022/08/19 04:14:45;;;;;;;0.10;0.10;;;16.70;99.90;;;;;;8230590;28;20031;-85
2022/08/19 04:18:47;;;;;;;0.15;0.15;;;16.70;99.90;;;;;;8261453;28;20023;-86
2022/08/19 04:22:48;;;;;;;0.15;0.15;;;16.60;99.90;;;;;;8282627;28;20476;-86
2022/08/19 04:26:49;;;;;;;0.10;0.10;;;16.60;99.90;;;;;;8266710;28;20080;-85
2022/08/19 04:30:52;;;;;;;0.05;0.05;;;16.80;99.90;;;;;;8263630;28;19949;-85
2022/08/19 04:34:58;;;;;;;0.10;0.10;;;16.70;99.90;;;;;;8261919;28;20077;-80
2022/08/19 04:39:03;;;;;;;0.88;0.35;;;16.70;99.90;;;;;;8263799;28;20057;-81
2022/08/19 04:43:04;;;;;;;0.13;0.13;;;16.70;99.90;;;;;;8259255;28;20030;-80
2022/08/19 04:47:07;;;;;;;0.30;0.30;;;16.90;99.90;;;;;;8259589;28;20037;-79
2022/08/19 04:51:10;;;;;;;0.40;0.40;;;16.70;99.90;;;;;;8259453;28;20621;-79
2022/08/19 04:55:12;;;;;;;0.38;0.38;;;16.60;99.90;;;;;;8282380;28;20010;-79
2022/08/19 04:59:14;;;;;;;0.10;0.10;;;16.60;99.90;;;;;;8261928;28;20019;-78
2022/08/19 05:03:16;;;;;;;0.22;0.22;;;16.70;99.90;;;;;;8282814;28;20030;-79
2022/08/19 05:07:17;;;;;;;0.20;0.20;;;16.80;99.90;;;;;;8262198;28;20037;-81
2022/08/19 05:11:25;;;;;;;0.32;0.32;;;16.80;99.90;;;;;;8274400;28;20014;-82
2022/08/19 05:15:26;;;;;;;0.75;0.75;;;16.70;99.90;;;;;;8278617;28;20030;-80
2022/08/19 05:23:45;;;;;;;0.43;0.43;;;17.10;99.90;;;;;;8287981;28;20065;-83
2022/08/19 05:27:47;;;;;;;0.10;0.10;;;17.00;99.90;;;;;;8264424;28;20027;-82
2022/08/19 05:31:51;;;;;;;0.10;0.10;;;16.90;99.90;;;;;;8259419;28;20058;-82
2022/08/19 05:35:52;;;;;;;0.10;0.10;;;16.70;99.90;;;;;;8269111;28;20022;-81
2022/08/19 05:39:54;;;;;;;0.10;0.10;;;16.80;99.90;;;;;;8272704;28;20026;-83
2022/08/19 05:43:56;;;;;;;0.25;0.25;;;17.00;99.90;;;;;;8274445;28;20113;-82
2022/08/19 05:47:58;;;;;;;0.10;0.10;;;17.00;99.90;;;;;;8291865;28;20178;-83
2022/08/19 05:52:00;;;;;;;0.40;0.40;;;17.00;99.90;;;;;;8275324;28;20495;-82
2022/08/19 05:56:06;;;;;;;0.08;0.08;;;16.90;99.90;;;;;;8280714;28;20054;-83
2022/08/19 06:00:11;;;;;;;0.32;0.32;;;17.00;99.90;;;;;;8286574;28;20022;-82
2022/08/19 06:04:13;;;;;;;0.25;0.25;;;16.80;99.90;;;;;;8268522;28;20157;-83
2022/08/19 06:08:14;;;;;;;0.10;0.10;;;16.90;99.90;;;;;;8287481;28;20044;-83
2022/08/19 06:12:14;;;;;;;0.55;0.55;;;17.10;99.90;;;;;;8257272;28;20046;-86
2022/08/19 06:16:20;;;;;;;0.00;0.00;;;17.00;99.90;;;;;;8272647;28;20026;-87
2022/08/19 06:20:21;;;;;;;0.00;0.00;;;17.20;99.90;;;;;;8284810;28;20081;-85
2022/08/19 06:24:24;;;;;;;0.10;0.10;;;17.10;99.90;;;;;;8263575;28;20118;-86
2022/08/19 06:28:25;;;;;;;0.10;0.10;;;17.20;99.90;;;;;;8267091;28;20086;-83
2022/08/19 06:32:25;;;;;;;0.20;0.20;;;17.20;99.90;;;;;;8273374;28;20022;-84
2022/08/19 06:36:33;;;;;;;0.10;0.10;;;17.10;99.90;;;;;;8274850;28;20030;-84
2022/08/19 06:40:35;;;;;;;0.20;0.20;;;17.10;99.90;;;;;;8275336;28;20090;-87
2022/08/19 06:44:36;;;;;;;0.20;0.20;;;17.10;99.90;;;;;;8274701;28;20030;-86
2022/08/19 06:48:37;;;;;;;1.38;0.75;;;17.10;99.90;;;;;;8279348;28;20030;-86
2022/08/19 06:52:39;;;;;;;0.10;0.10;;;17.00;99.90;;;;;;8277141;28;20129;-85
2022/08/19 06:56:40;;;;;;;0.13;0.13;;;17.10;99.90;;;;;;8258757;28;20034;-84
2022/08/19 07:00:40;;;;;;;0.20;0.20;;;17.10;99.90;;;;;;8262859;28;20046;-83
2022/08/19 07:04:41;;;;;;;0.10;0.10;;;17.20;99.90;;;;;;8264292;28;20492;-83
2022/08/19 07:08:42;;;;;;;0.17;0.17;;;17.40;99.90;;;;;;8262040;28;20042;-83
2022/08/19 07:12:43;;;;;;;0.20;0.20;;;17.30;99.90;;;;;;8261481;28;20448;-81
2022/08/19 07:16:45;;;;;;;0.10;0.10;;;17.50;99.90;;;;;;8258885;28;20089;-83
2022/08/19 07:20:46;;;;;;;0.10;0.10;;;17.70;99.90;;;;;;8262363;28;20093;-82
2022/08/19 07:24:47;;;;;;;0.10;0.10;;;17.70;99.90;;;;;;8271161;28;20030;-81
2022/08/19 07:28:48;;;;;;;0.10;0.10;;;17.60;99.90;;;;;;8278389;28;20022;-82
2022/08/19 07:32:51;;;;;;;0.20;0.20;;;17.70;99.90;;;;;;8285850;28;20487;-82
2022/08/19 07:36:52;;;;;;;0.10;0.10;;;17.60;99.90;;;;;;8258081;28;20026;-83
2022/08/19 07:40:54;;;;;;;0.10;0.10;;;17.50;99.90;;;;;;8272639;28;20491;-83
2022/08/19 07:44:54;;;;;;;0.10;0.10;;;17.60;99.90;;;;;;8284997;28;20054;-84
2022/08/19 07:48:55;;;;;;;0.57;0.57;;;17.90;99.90;;;;;;8272975;28;20568;-84
2022/08/19 07:52:56;;;;;;;0.45;0.45;;;17.70;99.90;;;;;;8262083;28;20018;-83
2022/08/19 07:56:57;;;;;;;0.10;0.10;;;17.70;99.90;;;;;;8260570;28;20022;-83
2022/08/19 08:00:58;;;;;;;0.35;0.35;;;17.70;99.90;;;;;;8266707;28;20306;-83
2022/08/19 08:09:23;;;;;;;0.25;0.25;;;17.80;99.90;;;;;;8277821;28;20613;-82
2022/08/19 08:13:24;;;;;;;0.10;0.10;;;17.80;99.90;;;;;;8257533;28;20018;-82
2022/08/19 08:17:27;;;;;;;0.10;0.10;;;17.90;99.90;;;;;;8284962;28;20068;-82
2022/08/19 08:21:28;;;;;;;0.20;0.20;;;18.00;99.90;;;;;;8256514;28;20035;-82
2022/08/19 08:25:29;;;;;;;0.10;0.10;;;18.00;99.90;;;;;;8256261;28;20490;-81
2022/08/19 08:29:30;;;;;;;0.55;0.55;;;18.10;99.90;;;;;;8277173;28;20029;-80
2022/08/19 08:33:31;;;;;;;1.17;0.45;;;18.20;99.90;;;;;;8278358;28;20026;-80
2022/08/19 08:37:32;;;;;;;0.10;0.10;;;18.30;99.90;;;;;;8258028;28;20096;-80
2022/08/19 08:41:35;;;;;;;1.45;1.17;;;18.30;99.90;;;;;;8258530;28;20030;-81
2022/08/19 08:45:43;;;;;;;0.63;0.63;;;18.20;99.90;;;;;;8269438;28;20047;-79
2022/08/19 08:49:51;;;;;;;0.00;0.00;;;18.20;99.90;;;;;;8249643;28;20030;-81
2022/08/19 08:53:53;;;;;;;0.40;0.40;;;18.20;99.90;;;;;;8267705;28;20026;-80
2022/08/19 08:58:09;;;;;;;0.40;0.40;;;18.30;99.90;;;;;;8254211;28;20400;-83
2022/08/19 09:02:10;;;;;;;0.10;0.10;;;18.40;99.90;;;;;;8272295;28;20030;-82
2022/08/19 09:06:30;;;;;;;0.20;0.20;;;18.60;99.90;;;;;;8252883;28;20104;-83
2022/08/19 09:10:57;;;;;;;0.22;0.22;;;18.60;99.90;;;;;;8256738;28;20064;-82
2022/08/19 09:15:10;;;;;;;0.17;0.17;;;18.60;99.90;;;;;;8272164;28;20034;-82
2022/08/19 09:19:11;;;;;;;0.20;0.20;;;18.80;99.90;;;;;;8255520;28;20075;-82
2022/08/19 09:23:11;;;;;;;0.20;0.20;;;18.70;99.90;;;;;;8275714;28;20030;-82
2022/08/19 09:27:12;;;;;;;0.20;0.20;;;18.70;99.90;;;;;;8255242;28;20088;-82
2022/08/19 09:31:23;;;;;;;0.10;0.10;;;19.00;99.90;;;;;;8255616;28;20678;-82
2022/08/19 09:35:27;;;;;;;0.13;0.13;;;19.10;99.90;;;;;;8269592;23;20086;-86
2022/08/19 09:39:27;;;;;;;0.10;0.10;;;19.00;99.90;;;;;;8272111;28;20042;-86
2022/08/19 09:43:28;;;;;;;0.10;0.10;;;19.00;99.90;;;;;;8265100;28;20378;-86
2022/08/19 09:47:28;;;;;;;1.90;1.02;;;18.80;99.90;;;;;;8277200;28;20081;-85
2022/08/19 09:51:29;;;;;;;0.10;0.10;;;18.90;99.90;;;;;;8281465;28;20029;-85
2022/08/19 09:55:29;;;;;;;0.35;0.35;;;18.90;99.90;;;;;;8270781;28;20066;-86
2022/08/19 09:59:30;;;;;;;0.20;0.20;;;18.90;99.90;;;;;;8279842;28;20030;-85
2022/08/19 10:03:33;;;;;;;0.10;0.10;;;18.80;99.90;;;;;;8275483;28;20033;-85
2022/08/19 10:07:35;;;;;;;0.10;0.10;;;18.70;99.90;;;;;;8276881;28;20034;-88
2022/08/19 10:11:37;;;;;;;0.63;0.63;;;18.30;99.90;;;;;;8277927;28;20032;-86
2022/08/19 10:15:40;;;;;;;0.15;0.15;;;18.30;99.90;;;;;;8280852;28;20633;-86
2022/08/19 10:19:40;;;;;;;0.35;0.35;;;18.20;99.90;;;;;;8276990;28;20038;-86
2022/08/19 10:23:47;;;;;;;0.10;0.10;;;17.80;99.90;;;;;;8275003;28;20036;-86
2022/08/19 10:27:47;;;;;;;0.10;0.10;;;17.80;99.90;;;;;;8277337;28;20038;-85
2022/08/19 10:31:48;;;;;;;0.15;0.15;;;17.70;99.90;;;;;;8269473;28;20023;-84
2022/08/19 10:35:48;;;;;;;1.20;1.20;;;17.60;99.90;;;;;;8270788;28;20065;-85
2022/08/19 10:39:49;;;;;;;0.10;0.10;;;17.70;99.90;;;;;;8276457;28;20034;-86
2022/08/19 10:43:54;;;;;;;1.95;1.35;;;17.70;99.90;;;;;;8277326;28;20034;-86
2022/08/19 10:47:55;;;;;;;2.17;1.13;;;17.50;99.90;;;;;;8285478;28;20535;-86
2022/08/19 11:00:36;;;;;;;0.90;0.90;;;17.20;99.90;;;;;;8281377;28;20037;-84
2022/08/19 11:04:38;;;;;;;0.17;0.17;;;17.30;99.90;;;;;;8266041;28;20026;-83
2022/08/19 11:08:38;;;;;;;0.20;0.20;;;17.40;99.90;;;;;;8277744;28;20030;-84
2022/08/19 11:12:40;;;;;;;0.10;0.10;;;17.10;99.90;;;;;;8281584;28;20026;-87
2022/08/19 11:16:42;;;;;;;0.10;0.10;;;17.20;99.90;;;;;;8270376;28;20033;-87
2022/08/19 11:20:42;;;;;;;0.20;0.20;;;17.30;99.90;;;;;;8275326;28;20080;-87
2022/08/19 11:24:43;;;;;;;0.25;0.25;;;17.40;99.90;;;;;;8265926;28;20035;-88
2022/08/19 11:28:44;;;;;;;0.30;0.30;;;17.50;99.90;;;;;;8286443;28;20213;-89
2022/08/19 11:32:44;;;;;;;0.20;0.20;;;17.70;99.90;;;;;;8273928;28;20029;-89
2022/08/19 11:36:47;;;;;;;0.10;0.10;;;17.50;99.90;;;;;;8269089;28;20034;-89
2022/08/19 11:40:58;;;;;;;0.10;0.10;;;17.50;99.90;;;;;;8274975;28;20044;-88
2022/08/19 11:44:59;;;;;;;4.13;2.58;;;17.50;99.90;;;;;;8282676;28;20065;-88
2022/08/19 11:49:03;;;;;;;0.10;0.10;;;17.40;99.90;;;;;;8279646;28;20451;-87
2022/08/19 11:53:03;;;;;;;0.10;0.10;;;17.70;99.90;;;;;;8275203;28;20018;-88
2022/08/19 11:57:04;;;;;;;0.10;0.10;;;17.60;99.90;;;;;;8270377;28;20665;-88
2022/08/19 12:01:08;;;;;;;0.30;0.30;;;17.50;99.90;;;;;;8263065;28;20061;-87
2022/08/19 12:05:09;;;;;;;0.20;0.20;;;17.60;99.90;;;;;;8283039;28;20571;-87
2022/08/19 12:09:10;;;;;;;0.10;0.10;;;17.80;99.90;;;;;;8269947;28;20032;-87
2022/08/19 12:13:18;;;;;;;0.10;0.10;;;17.70;99.90;;;;;;8268931;28;20026;-86
2022/08/19 12:17:18;;;;;;;0.10;0.10;;;17.80;99.90;;;;;;8257133;28;20069;-87
2022/08/19 12:21:22;;;;;;;0.10;0.10;;;17.80;99.90;;;;;;8264468;28;20030;-87
2022/08/19 12:25:23;;;;;;;0.10;0.10;;;17.70;99.90;;;;;;8296475;28;20033;-87
2022/08/19 12:29:28;;;;;;;0.10;0.10;;;17.70;99.90;;;;;;8278830;28;20046;-87
2022/08/19 12:33:28;;;;;;;0.10;0.10;;;17.90;99.90;;;;;;8272516;28;20403;-87
2022/08/19 12:37:32;;;;;;;0.03;0.03;;;17.90;99.90;;;;;;8290700;28;20124;-88
2022/08/19 12:41:33;;;;;;;0.10;0.10;;;17.90;99.90;;;;;;8296295;28;20030;-86
2022/08/19 12:45:34;;;;;;;0.88;0.82;;;17.90;99.90;;;;;;8287163;28;20136;-88
2022/08/19 12:49:36;;;;;;;0.20;0.20;;;18.30;99.90;;;;;;8307814;28;20033;-89
2022/08/19 12:53:37;;;;;;;0.15;0.15;;;18.00;99.90;;;;;;8308574;28;20044;-87
2022/08/19 12:57:38;;;;;;;0.10;0.10;;;18.00;99.90;;;;;;8290465;28;20030;-87
2022/08/19 13:01:40;;;;;;;0.20;0.20;;;18.20;99.90;;;;;;8310508;28;20037;-87
2022/08/19 13:05:41;;;;;;;0.00;0.00;;;18.10;99.90;;;;;;8293270;28;20413;-87
2022/08/19 13:09:42;;;;;;;0.10;0.10;;;18.00;99.90;;;;;;8300164;28;20033;-87
2022/08/19 13:13:44;;;;;;;0.10;0.10;;;18.00;99.90;;;;;;8296097;28;20072;-87
2022/08/19 13:17:47;;;;;;;0.10;0.10;;;18.00;99.90;;;;;;8292887;28;20028;-87
2022/08/19 13:21:50;;;;;;;0.10;0.10;;;17.80;99.90;;;;;;8313412;28;20553;-86
2022/08/19 13:25:59;;;;;;;0.10;0.10;;;17.80;99.90;;;;;;8297219;28;20041;-86
2022/08/19 13:34:31;;;;;;;0.10;0.10;;;17.90;99.90;;;;;;8310430;28;20060;-87
2022/08/19 13:38:31;;;;;;;0.10;0.10;;;17.80;99.90;;;;;;8290957;28;20272;-88
2022/08/19 13:42:32;;;;;;;0.77;0.50;;;17.80;99.90;;;;;;8317110;28;20032;-82
2022/08/19 13:46:33;;;;;;;0.00;0.00;;;17.90;99.90;;;;;;8300506;28;20021;-84
2022/08/19 13:50:38;;;;;;;0.10;0.10;;;17.70;99.90;;;;;;8309374;28;20503;-84
2022/08/19 13:54:38;;;;;;;0.10;0.10;;;17.70;99.90;;;;;;8297245;28;20065;-83
2022/08/19 13:58:39;;;;;;;0.10;0.10;;;17.70;99.90;;;;;;8307560;28;20439;-84
2022/08/19 14:02:40;;;;;;;0.20;0.20;;;17.70;99.90;;;;;;8317686;28;20037;-82
2022/08/19 14:06:41;;;;;;;0.20;0.20;;;17.70;99.90;;;;;;8297164;28;20079;-83
2022/08/19 14:10:44;;;;;;;0.10;0.10;;;17.80;99.90;;;;;;8290384;28;20233;-82
2022/08/19 14:14:44;;;;;;;0.50;0.50;;;17.70;99.90;;;;;;8296451;28;20036;-84
2022/08/19 14:18:45;;;;;;;0.10;0.10;;;17.70;99.90;;;;;;8292469;28;20032;-83
2022/08/19 14:22:47;;;;;;;0.08;0.08;;;17.60;99.90;;;;;;8296868;28;20064;-83
2022/08/19 14:26:47;;;;;;;0.10;0.10;;;17.60;99.90;;;;;;8290168;28;20048;-84
2022/08/19 14:30:48;;;;;;;0.10;0.10;;;17.60;99.90;;;;;;8304425;28;20493;-83
2022/08/19 14:34:49;;;;;;;1.02;1.02;;;17.50;99.90;;;;;;8286502;28;20511;-83
2022/08/19 14:38:49;;;;;;;0.10;0.10;;;17.50;99.90;;;;;;8304400;28;20030;-83
2022/08/19 14:42:58;;;;;;;0.10;0.10;;;17.50;99.90;;;;;;8290123;28;20075;-82
2022/08/19 14:46:59;;;;;;;0.10;0.10;;;17.30;99.90;;;;;;8304814;28;20041;-83
2022/08/19 14:50:59;;;;;;;0.10;0.10;;;17.30;99.90;;;;;;8290983;28;20038;-82
2022/08/19 14:55:00;;;;;;;0.10;0.10;;;17.30;99.90;;;;;;8303545;28;20105;-79
2022/08/19 14:59:01;;;;;;;0.68;0.68;;;17.40;99.90;;;;;;8306925;28;20029;-81
2022/08/19 15:03:01;;;;;;;0.10;0.10;;;17.30;99.90;;;;;;8302598;28;20026;-81
2022/08/19 15:07:04;;;;;;;0.03;0.03;;;17.30;99.90;;;;;;8301433;28;20029;-81
2022/08/19 15:11:09;;;;;;;0.10;0.10;;;17.30;99.90;;;;;;8303807;28;20037;-82
2022/08/19 15:15:12;;;;;;;0.15;0.15;;;17.20;99.90;;;;;;8292802;28;20088;-82
2022/08/19 15:19:13;;;;;;;0.10;0.10;;;17.10;99.90;;;;;;8312562;28;20048;-84
2022/08/19 15:23:15;;;;;;;0.43;0.43;;;17.10;99.90;;;;;;8292400;28;20026;-83
2022/08/19 15:27:16;;;;;;;0.10;0.10;;;17.10;99.90;;;;;;8292055;28;20101;-81
2022/08/19 15:31:21;;;;;;;0.10;0.10;;;17.20;99.90;;;;;;8293520;28;20108;-82
2022/08/19 15:35:23;;;;;;;1.35;0.90;;;17.00;99.90;;;;;;8289819;28;20029;-83
2022/08/19 15:39:26;;;;;;;0.00;0.00;;;17.10;99.90;;;;;;8284798;28;20604;-86
2022/08/19 15:43:27;;;;;;;0.20;0.20;;;17.10;99.90;;;;;;8285824;28;20028;-87
2022/08/19 15:47:31;;;;;;;0.17;0.17;;;17.10;99.90;;;;;;8293888;28;20068;-86
2022/08/19 15:51:37;;;;;;;0.30;0.30;;;17.20;99.90;;;;;;8280510;28;20022;-86
2022/08/19 15:55:44;;;;;;;0.10;0.10;;;17.20;99.90;;;;;;8287737;28;20045;-84
2022/08/19 16:08:22;;;;;;;0.47;0.47;;;17.40;99.90;;;;;;8305465;28;20044;-84
2022/08/19 16:12:26;;;;;;;0.10;0.10;;;17.30;99.90;;;;;;8302843;28;20014;-82
2022/08/19 16:16:29;;;;;;;0.10;0.10;;;17.10;99.90;;;;;;8285378;28;20033;-84
2022/08/19 16:20:30;;;;;;;0.15;0.15;;;17.20;99.90;;;;;;8293325;28;20021;-82
2022/08/19 16:24:32;;;;;;;0.10;0.10;;;17.20;99.90;;;;;;8305127;28;20034;-84
2022/08/19 16:28:33;;;;;;;0.10;0.10;;;17.20;99.90;;;;;;8285494;28;20022;-85
2022/08/19 16:32:33;;;;;;;0.10;0.10;;;17.20;99.90;;;;;;8289862;28;20026;-85
2022/08/19 16:36:34;;;;;;;0.68;0.38;;;17.10;99.90;;;;;;8310632;28;20037;-85
2022/08/19 16:40:34;;;;;;;0.40;0.40;;;17.10;99.90;;;;;;8281656;28;20034;-85
2022/08/19 16:44:38;;;;;;;0.10;0.10;;;17.10;99.90;;;;;;8288151;28;20034;-84
2022/08/19 16:48:41;;;;;;;0.10;0.10;;;17.30;99.90;;;;;;8321484;28;20093;-85
2022/08/19 16:52:51;;;;;;;0.30;0.30;;;17.40;99.90;;;;;;8315245;28;20026;-85
2022/08/19 17:01:21;;;;;;;0.10;0.10;;;17.20;99.90;;;;;;8322147;28;20041;-85
2022/08/19 17:05:22;;;;;;;0.10;0.10;;;17.10;99.90;;;;;;8321246;28;20065;-85
2022/08/19 17:09:22;;;;;;;21.15;1.33;;;17.10;99.90;;;;;;8313822;28;20033;-84
2022/08/19 17:13:25;;;;;;;0.10;0.10;;;17.00;99.90;;;;;;8296694;28;20021;-85
2022/08/19 17:17:26;;;;;;;0.43;0.43;;;17.10;99.90;;;;;;8317193;28;20096;-86
2022/08/19 17:21:31;;;;;;;0.22;0.22;;;17.10;99.90;;;;;;8312191;28;20027;-85
2022/08/19 17:25:32;;;;;;;0.10;0.10;;;17.10;99.90;;;;;;8288293;28;20087;-85
2022/08/19 17:29:33;;;;;;;0.10;0.10;;;17.10;99.90;;;;;;8342941;22;20053;-81
2022/08/19 17:33:34;;;;;;;0.45;0.45;;;17.40;99.90;;;;;;8289415;28;20034;-80
2022/08/19 17:37:35;;;;;;;0.10;0.10;;;17.50;99.90;;;;;;8316533;28;20025;-80
2022/08/19 17:41:36;;;;;;;0.00;0.00;;;17.30;99.90;;;;;;8326251;28;20037;-80
2022/08/19 17:45:38;;;;;;;0.10;0.10;;;17.60;99.90;;;;;;8311756;28;20595;-80
2022/08/19 17:49:38;;;;;;;0.10;0.10;;;17.60;99.90;;;;;;8304193;28;20029;-80
2022/08/19 17:53:39;;;;;;;0.20;0.20;;;17.20;99.90;;;;;;8294413;28;20040;-80
2022/08/19 17:57:40;;;;;;;0.32;0.32;;;17.30;99.90;;;;;;8318846;28;20025;-81
2022/08/19 18:01:46;;;;;;;0.30;0.30;;;17.40;99.90;;;;;;8299926;28;20080;-83
2022/08/19 18:05:46;;;;;;;0.10;0.10;;;17.30;99.90;;;;;;8307877;28;20372;-83
2022/08/19 18:09:50;;;;;;;0.08;0.08;;;17.20;99.90;;;;;;8312121;28;20023;-82
2022/08/19 18:13:51;;;;;;;0.05;0.05;;;17.30;99.90;;;;;;8298954;28;20117;-81
2022/08/19 18:17:52;;;;;;;0.10;0.10;;;17.50;99.90;;;;;;8300349;28;20033;-81
2022/08/19 18:21:52;;;;;;;3.17;0.95;;;17.40;99.90;;;;;;8305411;28;20044;-81
2022/08/19 18:25:53;;;;;;;0.45;0.45;;;17.30;99.90;;;;;;8312299;28;20088;-81
2022/08/19 18:29:57;;;;;;;0.40;0.40;;;17.10;99.90;;;;;;8298961;28;20033;-82
2022/08/19 18:33:59;;;;;;;0.15;0.15;;;17.20;99.90;;;;;;8296970;28;20049;-82
2022/08/19 18:49:03;;;;;;;0.00;0.00;;;17.30;99.90;;;;;;8298059;28;20104;-82
2022/08/19 18:51:17;;;;;;;0.10;0.10;;;16.90;99.90;;;;;;8229136;28;20174;-82
2022/08/19 18:55:18;;;;;;;0.10;0.10;;;16.90;99.90;;;;;;8291516;28;20034;-81
2022/08/19 18:59:19;;;;;;;0.13;0.13;;;16.80;99.90;;;;;;8282947;28;20030;-82
2022/08/19 19:03:20;;;;;;;0.10;0.10;;;16.90;99.90;;;;;;8304832;28;20540;-82
2022/08/19 19:07:21;;;;;;;1.30;1.30;;;16.80;99.90;;;;;;8296252;28;20026;-81
2022/08/19 19:11:33;;;;;;;0.10;0.10;;;16.70;99.90;;;;;;8320464;28;20395;-83
2022/08/19 19:15:35;;;;;;;0.10;0.10;;;16.70;99.90;;;;;;8289932;28;20033;-82
2022/08/19 19:19:41;;;;;;;0.20;0.20;;;16.70;99.90;;;;;;8305840;28;20487;-81
2022/08/19 19:23:41;;;;;;;0.20;0.20;;;16.70;99.90;;;;;;8295790;28;20036;-82
2022/08/19 19:27:42;;;;;;;0.10;0.10;;;17.00;99.90;;;;;;8298192;28;20400;-82
2022/08/19 19:31:43;;;;;;;0.10;0.10;;;16.90;99.90;;;;;;8295571;28;20048;-80
2022/08/19 19:35:45;;;;;;;0.20;0.20;;;16.80;99.90;;;;;;8288227;28;20036;-82
2022/08/19 19:39:46;;;;;;;1.35;0.80;;;16.70;99.90;;;;;;8305090;28;20025;-82
2022/08/19 19:43:47;;;;;;;0.10;0.10;;;16.70;99.90;;;;;;8292842;28;20029;-81
2022/08/19 19:47:48;;;;;;;0.10;0.10;;;16.60;99.90;;;;;;8315448;28;20408;-81
2022/08/19 19:51:50;;;;;;;0.22;0.22;;;16.70;99.90;;;;;;8310637;28;20025;-82
2022/08/19 19:55:57;;;;;;;0.10;0.10;;;16.80;99.90;;;;;;8292963;28;20068;-80
2022/08/19 19:59:58;;;;;;;0.38;0.38;;;16.70;99.90;;;;;;8306247;28;20030;-81
2022/08/19 20:04:00;;;;;;;0.00;0.00;;;16.70;99.90;;;;;;8289944;28;20025;-80
2022/08/19 20:12:19;;;;;;;0.20;0.20;;;16.60;99.90;;;;;;8310773;28;20080;-81
2022/08/19 20:16:21;;;;;;;0.10;0.10;;;16.60;99.90;;;;;;8308512;28;20030;-81
2022/08/19 20:20:25;;;;;;;0.10;0.10;;;16.80;99.90;;;;;;8293789;28;20036;-80
2022/08/19 20:24:34;;;;;;;0.38;0.38;;;16.70;99.90;;;;;;8286571;28;20427;-81
2022/08/19 20:28:34;;;;;;;1.02;0.98;;;16.70;99.90;;;;;;8286514;28;20506;-81
2022/08/19 20:32:35;;;;;;;0.30;0.30;;;16.70;99.90;;;;;;8281938;28;20034;-80
2022/08/19 20:36:36;;;;;;;0.65;0.65;;;16.80;99.90;;;;;;8284239;28;20041;-81
2022/08/19 20:40:47;;;;;;;2.95;1.40;;;16.90;99.90;;;;;;8294279;28;20029;-81
2022/08/19 20:44:48;;;;;;;0.10;0.10;;;16.90;99.90;;;;;;8302816;28;20025;-81
2022/08/19 20:48:49;;;;;;;0.28;0.28;;;16.80;99.90;;;;;;8283650;28;20033;-80
2022/08/19 20:52:49;;;;;;;0.20;0.20;;;16.80;99.90;;;;;;8306089;28;20022;-81
2022/08/19 20:56:50;;;;;;;1.88;1.75;;;16.90;99.90;;;;;;8311470;28;20038;-81
2022/08/19 21:00:55;;;;;;;0.52;0.52;;;16.90;99.90;;;;;;8305097;28;20034;-80
2022/08/19 21:04:56;;;;;;;0.30;0.30;;;17.00;99.90;;;;;;8286488;28;20030;-80
2022/08/19 21:08:57;;;;;;;0.98;0.98;;;17.00;99.90;;;;;;8286187;28;20018;-81
2022/08/19 21:12:57;;;;;;;0.38;0.38;;;17.00;99.90;;;;;;8298126;28;20071;-81
2022/08/19 21:16:58;;;;;;;2.05;1.25;;;17.10;99.90;;;;;;8308345;28;20029;-80
2022/08/19 21:20:58;;;;;;;0.10;0.10;;;17.20;99.90;;;;;;8304815;28;20072;-80
2022/08/19 21:24:59;;;;;;;0.17;0.17;;;17.20;99.90;;;;;;8305594;28;20030;-80
2022/08/19 21:28:59;;;;;;;0.22;0.22;;;17.20;99.90;;;;;;8286794;28;20406;-81
2022/08/19 21:33:01;;;;;;;0.30;0.30;;;17.00;99.90;;;;;;8283273;28;20064;-80
2022/08/19 21:37:02;;;;;;;1.40;1.30;;;17.10;99.90;;;;;;8295022;28;20447;-80
2022/08/19 21:41:04;;;;;;;0.10;0.10;;;16.90;99.90;;;;;;8306634;28;20030;-81
2022/08/19 21:45:05;;;;;;;0.20;0.20;;;17.00;99.90;;;;;;8304999;28;20112;-79
2022/08/19 21:49:06;;;;;;;0.88;0.88;;;17.00;99.90;;;;;;8305277;28;20030;-81
2022/08/19 21:53:10;;;;;;;0.00;0.00;;;16.90;99.90;;;;;;8316840;28;20438;-83
2022/08/19 21:57:10;;;;;;;0.00;0.00;;;17.10;99.90;;;;;;8290253;28;20022;-82
2022/08/19 22:01:11;;;;;;;0.80;0.80;;;16.90;99.90;;;;;;8288469;28;20037;-82
2022/08/19 22:05:12;;;;;;;0.40;0.40;;;16.90;99.90;;;;;;8288903;28;20399;-82
2022/08/19 22:09:13;;;;;;;0.10;0.10;;;16.80;99.90;;;;;;8293221;28;20021;-82
2022/08/19 22:13:16;;;;;;;0.22;0.22;;;16.90;99.90;;;;;;8298623;28;20392;-81
2022/08/19 22:17:17;;;;;;;0.22;0.22;;;16.80;99.90;;;;;;8302656;28;20025;-82
2022/08/19 22:21:19;;;;;;;0.10;0.10;;;16.80;99.90;;;;;;8294669;28;20029;-82
2022/08/19 22:25:30;;;;;;;0.22;0.22;;;16.80;99.90;;;;;;8314200;28;20025;-81
2022/08/19 22:29:30;;;;;;;;;;;16.70;99.90;;;;;;8302048;28;20021;-81
2022/08/19 22:33:31;;;;;;;0.10;0.10;;;16.60;99.90;;;;;;8288271;28;19913;-80
2022/08/19 22:37:32;;;;;;;0.20;0.20;;;16.70;99.90;;;;;;8297203;28;20084;-81